sensor_id;sensor_type;location;lat;lon;timestamp;P1;durP1;ratioP1;P2;durP2;ratioP2
44328;SDS011;30039;51.462;6.892;2022-09-03T00:00:14;2.00;;;1.30;;
44328;SDS011;30039;51.462;6.892;2022-09-03T00:03:03;1.90;;;1.25;;
44328;SDS011;30039;51.462;6.892;2022-09-03T00:08:57;3.90;;;1.40;;
44328;SDS011;30039;51.462;6.892;2022-09-03T00:11:52;2.50;;;1.27;;
44328;SDS011;30039;51.462;6.892;2022-09-03T00:17:35;2.05;;;1.23;;
44328;SDS011;30039;51.462;6.892;2022-09-03T00:23:19;1.50;;;1.23;;
44328;SDS011;30039;51.462;6.892;2022-09-03T00:31:42;2.58;;;1.52;;
44328;SDS011;30039;51.462;6.892;2022-09-03T00:34:33;2.75;;;1.50;;
44328;SDS011;30039;51.462;6.892;2022-09-03T00:37:20;6.75;;;1.83;;
44328;SDS011;30039;51.462;6.892;2022-09-03T00:40:05;2.33;;;1.50;;
44328;SDS011;30039;51.462;6.892;2022-09-03T00:43:03;4.07;;;1.60;;
44328;SDS011;30039;51.462;6.892;2022-09-03T00:46:25;2.55;;;1.45;;
44328;SDS011;30039;51.462;6.892;2022-09-03T00:57:29;1.90;;;1.45;;
44328;SDS011;30039;51.462;6.892;2022-09-03T01:00:19;4.38;;;1.55;;
44328;SDS011;30039;51.462;6.892;2022-09-03T01:03:08;2.88;;;1.30;;
44328;SDS011;30039;51.462;6.892;2022-09-03T01:12:00;2.65;;;1.40;;
44328;SDS011;30039;51.462;6.892;2022-09-03T01:26:03;2.22;;;1.30;;
44328;SDS011;30039;51.462;6.892;2022-09-03T01:43:49;1.73;;;1.10;;
44328;SDS011;30039;51.462;6.892;2022-09-03T01:46:42;1.70;;;1.05;;
44328;SDS011;30039;51.462;6.892;2022-09-03T01:52:19;2.65;;;1.45;;
44328;SDS011;30039;51.462;6.892;2022-09-03T01:55:12;1.90;;;1.20;;
44328;SDS011;30039;51.462;6.892;2022-09-03T01:58:04;1.95;;;1.30;;
44328;SDS011;30039;51.462;6.892;2022-09-03T02:00:54;2.05;;;1.10;;
44328;SDS011;30039;51.462;6.892;2022-09-03T02:03:42;2.22;;;1.10;;
44328;SDS011;30039;51.462;6.892;2022-09-03T02:06:29;1.70;;;1.25;;
44328;SDS011;30039;51.462;6.892;2022-09-03T02:09:18;3.45;;;1.20;;
44328;SDS011;30039;51.462;6.892;2022-09-03T02:14:50;1.58;;;1.00;;
44328;SDS011;30039;51.462;6.892;2022-09-03T02:17:36;2.22;;;1.10;;
44328;SDS011;30039;51.462;6.892;2022-09-03T02:20:23;1.70;;;1.10;;
44328;SDS011;30039;51.462;6.892;2022-09-03T02:23:10;2.95;;;1.17;;
44328;SDS011;30039;51.462;6.892;2022-09-03T02:25:57;1.90;;;1.20;;
44328;SDS011;30039;51.462;6.892;2022-09-03T02:28:43;2.38;;;1.27;;
44328;SDS011;30039;51.462;6.892;2022-09-03T02:31:29;1.50;;;1.13;;
44328;SDS011;30039;51.462;6.892;2022-09-03T02:34:15;1.40;;;1.10;;
44328;SDS011;30039;51.462;6.892;2022-09-03T02:37:00;2.70;;;1.38;;
44328;SDS011;30039;51.462;6.892;2022-09-03T02:39:56;2.78;;;1.30;;
44328;SDS011;30039;51.462;6.892;2022-09-03T02:42:43;1.77;;;1.25;;
44328;SDS011;30039;51.462;6.892;2022-09-03T02:45:28;1.73;;;1.20;;
44328;SDS011;30039;51.462;6.892;2022-09-03T02:48:16;2.53;;;1.63;;
44328;SDS011;30039;51.462;6.892;2022-09-03T02:51:05;2.15;;;1.27;;
44328;SDS011;30039;51.462;6.892;2022-09-03T02:53:51;2.75;;;1.23;;
44328;SDS011;30039;51.462;6.892;2022-09-03T02:56:37;3.03;;;1.67;;
44328;SDS011;30039;51.462;6.892;2022-09-03T02:59:23;3.17;;;1.33;;
44328;SDS011;30039;51.462;6.892;2022-09-03T03:02:09;2.38;;;1.30;;
44328;SDS011;30039;51.462;6.892;2022-09-03T03:04:54;2.97;;;1.45;;
44328;SDS011;30039;51.462;6.892;2022-09-03T03:07:40;2.53;;;1.33;;
44328;SDS011;30039;51.462;6.892;2022-09-03T03:10:26;3.55;;;1.40;;
44328;SDS011;30039;51.462;6.892;2022-09-03T03:13:14;2.88;;;1.50;;
44328;SDS011;30039;51.462;6.892;2022-09-03T03:16:02;2.10;;;1.30;;
44328;SDS011;30039;51.462;6.892;2022-09-03T03:18:48;2.50;;;1.30;;
44328;SDS011;30039;51.462;6.892;2022-09-03T03:21:33;2.08;;;1.40;;
44328;SDS011;30039;51.462;6.892;2022-09-03T03:24:19;4.35;;;1.20;;
44328;SDS011;30039;51.462;6.892;2022-09-03T03:27:05;4.80;;;1.50;;
44328;SDS011;30039;51.462;6.892;2022-09-03T03:29:51;2.30;;;1.45;;
44328;SDS011;30039;51.462;6.892;2022-09-03T03:32:37;2.30;;;1.40;;
44328;SDS011;30039;51.462;6.892;2022-09-03T03:35:23;1.98;;;1.30;;
44328;SDS011;30039;51.462;6.892;2022-09-03T03:38:09;2.08;;;1.45;;
44328;SDS011;30039;51.462;6.892;2022-09-03T03:40:54;2.72;;;1.20;;
44328;SDS011;30039;51.462;6.892;2022-09-03T03:43:40;2.28;;;1.60;;
44328;SDS011;30039;51.462;6.892;2022-09-03T03:46:30;1.88;;;1.40;;
44328;SDS011;30039;51.462;6.892;2022-09-03T03:49:16;2.75;;;1.70;;
44328;SDS011;30039;51.462;6.892;2022-09-03T03:52:02;2.08;;;1.40;;
44328;SDS011;30039;51.462;6.892;2022-09-03T03:54:48;4.13;;;1.30;;
44328;SDS011;30039;51.462;6.892;2022-09-03T03:57:34;2.22;;;1.45;;
44328;SDS011;30039;51.462;6.892;2022-09-03T04:00:21;7.72;;;1.52;;
44328;SDS011;30039;51.462;6.892;2022-09-03T04:03:07;2.80;;;1.60;;
44328;SDS011;30039;51.462;6.892;2022-09-03T04:05:56;2.65;;;1.42;;
44328;SDS011;30039;51.462;6.892;2022-09-03T04:08:44;2.33;;;1.42;;
44328;SDS011;30039;51.462;6.892;2022-09-03T04:11:30;3.40;;;1.60;;
44328;SDS011;30039;51.462;6.892;2022-09-03T04:14:16;4.00;;;1.45;;
44328;SDS011;30039;51.462;6.892;2022-09-03T04:17:04;2.97;;;1.55;;
44328;SDS011;30039;51.462;6.892;2022-09-03T04:19:50;3.60;;;1.40;;
44328;SDS011;30039;51.462;6.892;2022-09-03T04:22:36;2.20;;;1.27;;
44328;SDS011;30039;51.462;6.892;2022-09-03T04:25:21;3.13;;;1.25;;
44328;SDS011;30039;51.462;6.892;2022-09-03T04:28:07;2.80;;;1.50;;
44328;SDS011;30039;51.462;6.892;2022-09-03T04:30:54;2.83;;;1.58;;
44328;SDS011;30039;51.462;6.892;2022-09-03T04:33:39;2.25;;;1.40;;
44328;SDS011;30039;51.462;6.892;2022-09-03T04:36:26;2.72;;;1.45;;
44328;SDS011;30039;51.462;6.892;2022-09-03T04:39:12;4.57;;;1.48;;
44328;SDS011;30039;51.462;6.892;2022-09-03T04:41:58;2.92;;;1.60;;
44328;SDS011;30039;51.462;6.892;2022-09-03T04:44:44;2.10;;;1.50;;
44328;SDS011;30039;51.462;6.892;2022-09-03T04:47:29;2.28;;;1.58;;
44328;SDS011;30039;51.462;6.892;2022-09-03T04:50:16;5.65;;;1.60;;
44328;SDS011;30039;51.462;6.892;2022-09-03T04:53:03;2.65;;;1.40;;
44328;SDS011;30039;51.462;6.892;2022-09-03T04:55:49;3.20;;;1.67;;
44328;SDS011;30039;51.462;6.892;2022-09-03T04:58:34;3.55;;;1.60;;
44328;SDS011;30039;51.462;6.892;2022-09-03T05:01:21;3.72;;;1.60;;
44328;SDS011;30039;51.462;6.892;2022-09-03T05:04:06;1.90;;;1.40;;
44328;SDS011;30039;51.462;6.892;2022-09-03T05:06:52;3.88;;;1.70;;
44328;SDS011;30039;51.462;6.892;2022-09-03T05:09:38;2.25;;;1.45;;
44328;SDS011;30039;51.462;6.892;2022-09-03T05:12:23;2.60;;;1.55;;
44328;SDS011;30039;51.462;6.892;2022-09-03T05:15:09;6.03;;;2.05;;
44328;SDS011;30039;51.462;6.892;2022-09-03T05:17:55;4.82;;;2.50;;
44328;SDS011;30039;51.462;6.892;2022-09-03T05:20:41;4.63;;;1.75;;
44328;SDS011;30039;51.462;6.892;2022-09-03T05:23:27;2.42;;;1.55;;
44328;SDS011;30039;51.462;6.892;2022-09-03T05:26:16;2.17;;;1.40;;
44328;SDS011;30039;51.462;6.892;2022-09-03T05:29:02;3.53;;;1.52;;
44328;SDS011;30039;51.462;6.892;2022-09-03T05:31:51;2.35;;;1.55;;
44328;SDS011;30039;51.462;6.892;2022-09-03T05:34:38;4.28;;;1.70;;
44328;SDS011;30039;51.462;6.892;2022-09-03T05:37:24;11.20;;;1.77;;
44328;SDS011;30039;51.462;6.892;2022-09-03T05:40:09;1.92;;;1.40;;
44328;SDS011;30039;51.462;6.892;2022-09-03T05:42:56;1.63;;;1.33;;
44328;SDS011;30039;51.462;6.892;2022-09-03T05:45:43;4.85;;;1.50;;
44328;SDS011;30039;51.462;6.892;2022-09-03T05:48:29;3.92;;;1.48;;
44328;SDS011;30039;51.462;6.892;2022-09-03T05:51:16;2.60;;;1.67;;
44328;SDS011;30039;51.462;6.892;2022-09-03T05:54:01;3.13;;;1.67;;
44328;SDS011;30039;51.462;6.892;2022-09-03T05:56:48;4.03;;;1.55;;
44328;SDS011;30039;51.462;6.892;2022-09-03T05:59:34;3.13;;;1.60;;
44328;SDS011;30039;51.462;6.892;2022-09-03T06:02:20;2.97;;;1.60;;
44328;SDS011;30039;51.462;6.892;2022-09-03T06:05:06;2.30;;;1.40;;
44328;SDS011;30039;51.462;6.892;2022-09-03T06:07:52;2.75;;;1.50;;
44328;SDS011;30039;51.462;6.892;2022-09-03T06:10:38;2.42;;;1.60;;
44328;SDS011;30039;51.462;6.892;2022-09-03T06:13:24;4.22;;;1.77;;
44328;SDS011;30039;51.462;6.892;2022-09-03T06:16:09;2.95;;;2.05;;
44328;SDS011;30039;51.462;6.892;2022-09-03T06:18:55;3.63;;;1.67;;
44328;SDS011;30039;51.462;6.892;2022-09-03T06:21:42;7.75;;;2.25;;
44328;SDS011;30039;51.462;6.892;2022-09-03T06:24:27;2.63;;;1.67;;
44328;SDS011;30039;51.462;6.892;2022-09-03T06:27:14;4.18;;;1.85;;
44328;SDS011;30039;51.462;6.892;2022-09-03T06:29:59;4.93;;;1.85;;
44328;SDS011;30039;51.462;6.892;2022-09-03T06:32:45;2.40;;;1.38;;
44328;SDS011;30039;51.462;6.892;2022-09-03T06:35:31;3.42;;;1.50;;
44328;SDS011;30039;51.462;6.892;2022-09-03T06:38:17;4.43;;;1.58;;
44328;SDS011;30039;51.462;6.892;2022-09-03T06:41:06;4.63;;;1.60;;
44328;SDS011;30039;51.462;6.892;2022-09-03T06:43:54;4.28;;;1.40;;
44328;SDS011;30039;51.462;6.892;2022-09-03T06:46:40;2.80;;;1.40;;
44328;SDS011;30039;51.462;6.892;2022-09-03T06:49:29;3.17;;;1.52;;
44328;SDS011;30039;51.462;6.892;2022-09-03T06:52:16;3.38;;;1.60;;
44328;SDS011;30039;51.462;6.892;2022-09-03T06:55:01;4.30;;;1.77;;
44328;SDS011;30039;51.462;6.892;2022-09-03T06:57:48;2.13;;;1.30;;
44328;SDS011;30039;51.462;6.892;2022-09-03T07:00:34;5.38;;;1.60;;
44328;SDS011;30039;51.462;6.892;2022-09-03T07:03:19;2.38;;;1.50;;
44328;SDS011;30039;51.462;6.892;2022-09-03T07:06:06;2.38;;;1.40;;
44328;SDS011;30039;51.462;6.892;2022-09-03T07:08:53;4.95;;;1.55;;
44328;SDS011;30039;51.462;6.892;2022-09-03T07:11:39;7.22;;;1.50;;
44328;SDS011;30039;51.462;6.892;2022-09-03T07:14:31;3.95;;;1.40;;
44328;SDS011;30039;51.462;6.892;2022-09-03T07:17:16;4.65;;;1.60;;
44328;SDS011;30039;51.462;6.892;2022-09-03T07:20:02;4.03;;;1.15;;
44328;SDS011;30039;51.462;6.892;2022-09-03T07:22:48;2.92;;;1.33;;
44328;SDS011;30039;51.462;6.892;2022-09-03T07:25:33;2.40;;;1.38;;
44328;SDS011;30039;51.462;6.892;2022-09-03T07:28:19;3.15;;;1.30;;
44328;SDS011;30039;51.462;6.892;2022-09-03T07:31:07;2.90;;;1.50;;
44328;SDS011;30039;51.462;6.892;2022-09-03T07:33:57;2.50;;;1.40;;
44328;SDS011;30039;51.462;6.892;2022-09-03T07:36:44;4.45;;;1.38;;
44328;SDS011;30039;51.462;6.892;2022-09-03T07:39:31;3.22;;;1.10;;
44328;SDS011;30039;51.462;6.892;2022-09-03T07:42:19;2.08;;;1.35;;
44328;SDS011;30039;51.462;6.892;2022-09-03T07:45:06;2.22;;;1.20;;
44328;SDS011;30039;51.462;6.892;2022-09-03T07:47:54;2.30;;;1.40;;
44328;SDS011;30039;51.462;6.892;2022-09-03T07:50:40;3.30;;;1.60;;
44328;SDS011;30039;51.462;6.892;2022-09-03T07:53:26;2.97;;;1.38;;
44328;SDS011;30039;51.462;6.892;2022-09-03T07:56:13;6.18;;;1.60;;
44328;SDS011;30039;51.462;6.892;2022-09-03T07:58:58;4.47;;;1.33;;
44328;SDS011;30039;51.462;6.892;2022-09-03T08:01:44;3.40;;;1.40;;
44328;SDS011;30039;51.462;6.892;2022-09-03T08:04:30;2.53;;;1.17;;
44328;SDS011;30039;51.462;6.892;2022-09-03T08:07:17;4.70;;;1.60;;
44328;SDS011;30039;51.462;6.892;2022-09-03T08:10:03;1.75;;;1.30;;
44328;SDS011;30039;51.462;6.892;2022-09-03T08:12:49;2.03;;;1.20;;
44328;SDS011;30039;51.462;6.892;2022-09-03T08:15:35;1.67;;;1.30;;
44328;SDS011;30039;51.462;6.892;2022-09-03T08:18:21;1.70;;;1.23;;
44328;SDS011;30039;51.462;6.892;2022-09-03T08:21:13;4.05;;;1.40;;
44328;SDS011;30039;51.462;6.892;2022-09-03T08:24:00;5.05;;;1.45;;
44328;SDS011;30039;51.462;6.892;2022-09-03T08:26:48;2.42;;;1.60;;
44328;SDS011;30039;51.462;6.892;2022-09-03T08:29:34;1.88;;;1.10;;
44328;SDS011;30039;51.462;6.892;2022-09-03T08:32:21;1.77;;;1.30;;
44328;SDS011;30039;51.462;6.892;2022-09-03T08:35:07;3.47;;;1.17;;
44328;SDS011;30039;51.462;6.892;2022-09-03T08:37:53;2.45;;;1.50;;
44328;SDS011;30039;51.462;6.892;2022-09-03T08:40:39;4.15;;;1.30;;
44328;SDS011;30039;51.462;6.892;2022-09-03T08:43:26;3.35;;;1.27;;
44328;SDS011;30039;51.462;6.892;2022-09-03T08:46:12;2.03;;;1.13;;
44328;SDS011;30039;51.462;6.892;2022-09-03T08:48:58;1.60;;;0.95;;
44328;SDS011;30039;51.462;6.892;2022-09-03T08:51:44;3.33;;;1.08;;
44328;SDS011;30039;51.462;6.892;2022-09-03T08:54:32;1.75;;;1.10;;
44328;SDS011;30039;51.462;6.892;2022-09-03T08:57:19;1.70;;;1.05;;
44328;SDS011;30039;51.462;6.892;2022-09-03T09:00:05;2.00;;;1.00;;
44328;SDS011;30039;51.462;6.892;2022-09-03T09:02:52;2.90;;;1.00;;
44328;SDS011;30039;51.462;6.892;2022-09-03T09:05:53;3.38;;;0.98;;
44328;SDS011;30039;51.462;6.892;2022-09-03T09:12:08;1.17;;;0.95;;
44328;SDS011;30039;51.462;6.892;2022-09-03T09:23:42;2.45;;;1.10;;
44328;SDS011;30039;51.462;6.892;2022-09-03T09:26:29;4.47;;;1.30;;
44328;SDS011;30039;51.462;6.892;2022-09-03T09:29:15;4.03;;;1.20;;
44328;SDS011;30039;51.462;6.892;2022-09-03T09:32:01;3.75;;;1.25;;
44328;SDS011;30039;51.462;6.892;2022-09-03T09:34:49;2.17;;;1.20;;
44328;SDS011;30039;51.462;6.892;2022-09-03T09:37:45;1.63;;;1.20;;
44328;SDS011;30039;51.462;6.892;2022-09-03T09:40:33;2.40;;;1.17;;
44328;SDS011;30039;51.462;6.892;2022-09-03T09:43:19;3.45;;;1.05;;
44328;SDS011;30039;51.462;6.892;2022-09-03T09:46:11;2.78;;;1.15;;
44328;SDS011;30039;51.462;6.892;2022-09-03T09:48:57;2.65;;;1.15;;
44328;SDS011;30039;51.462;6.892;2022-09-03T09:51:43;2.05;;;1.20;;
44328;SDS011;30039;51.462;6.892;2022-09-03T09:54:29;2.58;;;1.20;;
44328;SDS011;30039;51.462;6.892;2022-09-03T09:57:24;2.65;;;1.15;;
44328;SDS011;30039;51.462;6.892;2022-09-03T10:00:12;1.95;;;1.20;;
44328;SDS011;30039;51.462;6.892;2022-09-03T10:02:58;1.40;;;1.10;;
44328;SDS011;30039;51.462;6.892;2022-09-03T10:05:44;1.80;;;1.10;;
44328;SDS011;30039;51.462;6.892;2022-09-03T10:08:41;1.77;;;1.00;;
44328;SDS011;30039;51.462;6.892;2022-09-03T10:11:27;2.53;;;1.25;;
44328;SDS011;30039;51.462;6.892;2022-09-03T10:14:18;1.33;;;1.10;;
44328;SDS011;30039;51.462;6.892;2022-09-03T10:17:20;1.55;;;1.02;;
44328;SDS011;30039;51.462;6.892;2022-09-03T10:20:11;2.85;;;1.10;;
44328;SDS011;30039;51.462;6.892;2022-09-03T10:23:17;2.25;;;1.10;;
44328;SDS011;30039;51.462;6.892;2022-09-03T10:26:08;2.22;;;1.20;;
44328;SDS011;30039;51.462;6.892;2022-09-03T10:28:56;3.20;;;1.30;;
44328;SDS011;30039;51.462;6.892;2022-09-03T10:34:33;4.20;;;1.40;;
44328;SDS011;30039;51.462;6.892;2022-09-03T10:43:23;3.33;;;1.15;;
44328;SDS011;30039;51.462;6.892;2022-09-03T10:46:16;1.63;;;1.10;;
44328;SDS011;30039;51.462;6.892;2022-09-03T10:55:22;2.72;;;1.50;;
44328;SDS011;30039;51.462;6.892;2022-09-03T11:04:25;1.60;;;1.10;;
44328;SDS011;30039;51.462;6.892;2022-09-03T11:07:13;1.65;;;1.23;;
44328;SDS011;30039;51.462;6.892;2022-09-03T11:15:47;2.92;;;1.50;;
44328;SDS011;30039;51.462;6.892;2022-09-03T11:18:40;1.65;;;1.35;;
44328;SDS011;30039;51.462;6.892;2022-09-03T11:21:27;2.22;;;1.40;;
44328;SDS011;30039;51.462;6.892;2022-09-03T11:24:19;2.00;;;1.30;;
44328;SDS011;30039;51.462;6.892;2022-09-03T11:29:54;2.47;;;1.42;;
44328;SDS011;30039;51.462;6.892;2022-09-03T11:32:50;1.88;;;1.20;;
44328;SDS011;30039;51.462;6.892;2022-09-03T11:35:39;1.60;;;1.27;;
44328;SDS011;30039;51.462;6.892;2022-09-03T11:38:28;1.65;;;1.33;;
44328;SDS011;30039;51.462;6.892;2022-09-03T11:41:23;6.28;;;1.70;;
44328;SDS011;30039;51.462;6.892;2022-09-03T11:44:17;3.28;;;1.33;;
44328;SDS011;30039;51.462;6.892;2022-09-03T11:47:12;1.63;;;1.27;;
44328;SDS011;30039;51.462;6.892;2022-09-03T11:50:04;1.98;;;1.40;;
44328;SDS011;30039;51.462;6.892;2022-09-03T11:52:52;2.85;;;1.23;;
44328;SDS011;30039;51.462;6.892;2022-09-03T11:58:39;2.80;;;1.40;;
44328;SDS011;30039;51.462;6.892;2022-09-03T12:01:27;2.53;;;1.50;;
44328;SDS011;30039;51.462;6.892;2022-09-03T12:04:13;2.72;;;1.35;;
44328;SDS011;30039;51.462;6.892;2022-09-03T12:09:51;1.52;;;1.27;;
44328;SDS011;30039;51.462;6.892;2022-09-03T12:12:50;1.60;;;1.25;;
44328;SDS011;30039;51.462;6.892;2022-09-03T12:18:43;2.00;;;1.40;;
44328;SDS011;30039;51.462;6.892;2022-09-03T12:21:36;2.25;;;1.35;;
44328;SDS011;30039;51.462;6.892;2022-09-03T12:24:23;3.97;;;1.40;;
44328;SDS011;30039;51.462;6.892;2022-09-03T12:27:18;4.20;;;1.25;;
44328;SDS011;30039;51.462;6.892;2022-09-03T12:30:13;1.52;;;1.30;;
44328;SDS011;30039;51.462;6.892;2022-09-03T12:33:06;3.15;;;1.52;;
44328;SDS011;30039;51.462;6.892;2022-09-03T12:35:56;2.47;;;1.10;;
44328;SDS011;30039;51.462;6.892;2022-09-03T12:38:42;4.50;;;1.20;;
44328;SDS011;30039;51.462;6.892;2022-09-03T12:41:28;2.78;;;1.55;;
44328;SDS011;30039;51.462;6.892;2022-09-03T12:44:18;1.40;;;1.20;;
44328;SDS011;30039;51.462;6.892;2022-09-03T12:47:12;3.92;;;1.30;;
44328;SDS011;30039;51.462;6.892;2022-09-03T12:50:03;3.22;;;1.67;;
44328;SDS011;30039;51.462;6.892;2022-09-03T12:52:50;2.35;;;1.42;;
44328;SDS011;30039;51.462;6.892;2022-09-03T13:01:30;3.28;;;1.33;;
44328;SDS011;30039;51.462;6.892;2022-09-03T13:04:30;1.90;;;1.45;;
44328;SDS011;30039;51.462;6.892;2022-09-03T13:10:24;2.67;;;1.50;;
44328;SDS011;30039;51.462;6.892;2022-09-03T13:13:24;3.60;;;1.50;;
44328;SDS011;30039;51.462;6.892;2022-09-03T13:22:33;1.70;;;1.38;;
44328;SDS011;30039;51.462;6.892;2022-09-03T13:25:36;2.28;;;1.75;;
44328;SDS011;30039;51.462;6.892;2022-09-03T13:34:20;2.72;;;1.48;;
44328;SDS011;30039;51.462;6.892;2022-09-03T13:43:18;2.67;;;1.38;;
44328;SDS011;30039;51.462;6.892;2022-09-03T13:46:06;1.90;;;1.30;;
44328;SDS011;30039;51.462;6.892;2022-09-03T13:48:56;3.40;;;1.58;;
44328;SDS011;30039;51.462;6.892;2022-09-03T13:56:04;2.20;;;1.50;;
44328;SDS011;30039;51.462;6.892;2022-09-03T13:58:47;2.45;;;1.58;;
44328;SDS011;30039;51.462;6.892;2022-09-03T14:19:47;2.15;;;1.80;;
44328;SDS011;30039;51.462;6.892;2022-09-03T14:22:43;2.40;;;1.80;;
44328;SDS011;30039;51.462;6.892;2022-09-03T14:25:29;2.53;;;1.55;;
44328;SDS011;30039;51.462;6.892;2022-09-03T14:28:27;1.95;;;1.33;;
44328;SDS011;30039;51.462;6.892;2022-09-03T14:34:33;3.17;;;1.90;;
44328;SDS011;30039;51.462;6.892;2022-09-03T14:37:23;2.08;;;1.40;;
44328;SDS011;30039;51.462;6.892;2022-09-03T14:49:03;4.20;;;1.73;;
44328;SDS011;30039;51.462;6.892;2022-09-03T15:10:11;2.22;;;1.70;;
44328;SDS011;30039;51.462;6.892;2022-09-03T15:12:54;2.20;;;1.75;;
44328;SDS011;30039;51.462;6.892;2022-09-03T15:30:09;5.60;;;1.67;;
44328;SDS011;30039;51.462;6.892;2022-09-03T15:36:02;3.47;;;1.65;;
44328;SDS011;30039;51.462;6.892;2022-09-03T15:38:54;3.58;;;1.80;;
44328;SDS011;30039;51.462;6.892;2022-09-03T15:41:47;3.03;;;1.63;;
44328;SDS011;30039;51.462;6.892;2022-09-03T15:44:41;2.38;;;1.50;;
44328;SDS011;30039;51.462;6.892;2022-09-03T15:50:30;1.88;;;1.50;;
44328;SDS011;30039;51.462;6.892;2022-09-03T15:53:33;2.70;;;1.63;;
44328;SDS011;30039;51.462;6.892;2022-09-03T15:59:20;2.30;;;1.80;;
44328;SDS011;30039;51.462;6.892;2022-09-03T16:02:17;3.83;;;1.90;;
44328;SDS011;30039;51.462;6.892;2022-09-03T16:05:10;2.47;;;1.60;;
44328;SDS011;30039;51.462;6.892;2022-09-03T16:22:30;2.20;;;1.77;;
44328;SDS011;30039;51.462;6.892;2022-09-03T16:25:26;3.72;;;2.28;;
44328;SDS011;30039;51.462;6.892;2022-09-03T16:28:18;3.50;;;1.98;;
44328;SDS011;30039;51.462;6.892;2022-09-03T16:42:43;4.43;;;2.67;;
44328;SDS011;30039;51.462;6.892;2022-09-03T16:45:41;3.35;;;2.35;;
44328;SDS011;30039;51.462;6.892;2022-09-03T16:51:43;5.55;;;2.20;;
44328;SDS011;30039;51.462;6.892;2022-09-03T16:58:18;4.20;;;2.40;;
44328;SDS011;30039;51.462;6.892;2022-09-03T17:03:54;5.93;;;2.33;;
44328;SDS011;30039;51.462;6.892;2022-09-03T17:15:55;2.60;;;1.58;;
44328;SDS011;30039;51.462;6.892;2022-09-03T17:36:24;2.33;;;1.65;;
44328;SDS011;30039;51.462;6.892;2022-09-03T17:51:03;2.92;;;2.00;;
44328;SDS011;30039;51.462;6.892;2022-09-03T17:53:55;2.70;;;2.03;;
44328;SDS011;30039;51.462;6.892;2022-09-03T17:56:44;3.50;;;1.98;;
44328;SDS011;30039;51.462;6.892;2022-09-03T18:07:59;4.05;;;2.50;;
44328;SDS011;30039;51.462;6.892;2022-09-03T18:16:42;3.65;;;2.30;;
44328;SDS011;30039;51.462;6.892;2022-09-03T18:19:38;5.90;;;2.60;;
44328;SDS011;30039;51.462;6.892;2022-09-03T18:26:00;3.25;;;1.80;;
44328;SDS011;30039;51.462;6.892;2022-09-03T18:29:10;6.00;;;2.20;;
44328;SDS011;30039;51.462;6.892;2022-09-03T18:32:15;4.03;;;2.00;;
44328;SDS011;30039;51.462;6.892;2022-09-03T18:35:19;2.58;;;2.08;;
44328;SDS011;30039;51.462;6.892;2022-09-03T18:38:27;4.05;;;1.90;;
44328;SDS011;30039;51.462;6.892;2022-09-03T18:47:48;2.40;;;1.65;;
44328;SDS011;30039;51.462;6.892;2022-09-03T18:51:01;4.05;;;1.90;;
44328;SDS011;30039;51.462;6.892;2022-09-03T18:54:11;3.58;;;2.22;;
44328;SDS011;30039;51.462;6.892;2022-09-03T18:57:23;2.95;;;1.92;;
44328;SDS011;30039;51.462;6.892;2022-09-03T19:00:29;3.17;;;1.95;;
44328;SDS011;30039;51.462;6.892;2022-09-03T19:06:53;3.08;;;2.00;;
44328;SDS011;30039;51.462;6.892;2022-09-03T19:10:03;3.17;;;1.98;;
44328;SDS011;30039;51.462;6.892;2022-09-03T19:16:36;2.58;;;1.80;;
44328;SDS011;30039;51.462;6.892;2022-09-03T19:22:50;2.22;;;1.70;;
44328;SDS011;30039;51.462;6.892;2022-09-03T19:25:55;6.38;;;2.10;;
44328;SDS011;30039;51.462;6.892;2022-09-03T19:29:06;3.15;;;1.90;;
44328;SDS011;30039;51.462;6.892;2022-09-03T19:32:18;2.30;;;1.67;;
44328;SDS011;30039;51.462;6.892;2022-09-03T19:35:27;4.97;;;1.95;;
44328;SDS011;30039;51.462;6.892;2022-09-03T19:41:46;2.90;;;1.85;;
44328;SDS011;30039;51.462;6.892;2022-09-03T19:44:58;2.58;;;1.85;;
44328;SDS011;30039;51.462;6.892;2022-09-03T19:51:34;3.15;;;1.98;;
44328;SDS011;30039;51.462;6.892;2022-09-03T19:54:40;3.45;;;1.95;;
44328;SDS011;30039;51.462;6.892;2022-09-03T19:57:44;3.17;;;1.50;;
44328;SDS011;30039;51.462;6.892;2022-09-03T20:00:50;1.50;;;1.23;;
44328;SDS011;30039;51.462;6.892;2022-09-03T20:03:55;2.65;;;1.30;;
44328;SDS011;30039;51.462;6.892;2022-09-03T20:07:02;2.40;;;1.40;;
44328;SDS011;30039;51.462;6.892;2022-09-03T20:10:11;1.92;;;1.40;;
44328;SDS011;30039;51.462;6.892;2022-09-03T20:13:16;2.05;;;1.40;;
44328;SDS011;30039;51.462;6.892;2022-09-03T20:16:15;1.95;;;1.20;;
44328;SDS011;30039;51.462;6.892;2022-09-03T20:30:48;2.25;;;1.73;;
44328;SDS011;30039;51.462;6.892;2022-09-03T20:45:31;2.95;;;1.50;;
44328;SDS011;30039;51.462;6.892;2022-09-03T20:48:20;1.63;;;1.30;;
44328;SDS011;30039;51.462;6.892;2022-09-03T20:51:13;2.75;;;1.42;;
44328;SDS011;30039;51.462;6.892;2022-09-03T21:14:52;2.20;;;1.35;;
44328;SDS011;30039;51.462;6.892;2022-09-03T21:20:34;3.22;;;1.35;;
44328;SDS011;30039;51.462;6.892;2022-09-03T21:23:28;2.80;;;1.42;;
44328;SDS011;30039;51.462;6.892;2022-09-03T21:27:58;2.92;;;1.50;;
44328;SDS011;30039;51.462;6.892;2022-09-03T21:30:46;1.60;;;1.50;;
44328;SDS011;30039;51.462;6.892;2022-09-03T21:33:35;2.25;;;1.58;;
44328;SDS011;30039;51.462;6.892;2022-09-03T21:36:29;1.98;;;1.50;;
44328;SDS011;30039;51.462;6.892;2022-09-03T21:39:20;6.30;;;2.10;;
44328;SDS011;30039;51.462;6.892;2022-09-03T21:45:27;2.13;;;1.30;;
44328;SDS011;30039;51.462;6.892;2022-09-03T21:51:01;2.60;;;2.10;;
44328;SDS011;30039;51.462;6.892;2022-09-03T21:54:00;2.70;;;1.90;;
44328;SDS011;30039;51.462;6.892;2022-09-03T21:57:23;2.67;;;1.70;;
44328;SDS011;30039;51.462;6.892;2022-09-03T22:02:51;2.35;;;1.80;;
44328;SDS011;30039;51.462;6.892;2022-09-03T22:05:52;4.60;;;1.85;;
44328;SDS011;30039;51.462;6.892;2022-09-03T22:11:27;2.67;;;1.70;;
44328;SDS011;30039;51.462;6.892;2022-09-03T22:14:14;2.13;;;1.80;;
44328;SDS011;30039;51.462;6.892;2022-09-03T22:17:02;3.72;;;2.05;;
44328;SDS011;30039;51.462;6.892;2022-09-03T22:19:54;3.63;;;1.95;;
44328;SDS011;30039;51.462;6.892;2022-09-03T22:22:41;3.05;;;1.80;;
44328;SDS011;30039;51.462;6.892;2022-09-03T22:28:18;3.88;;;2.05;;
44328;SDS011;30039;51.462;6.892;2022-09-03T22:31:16;4.13;;;2.50;;
44328;SDS011;30039;51.462;6.892;2022-09-03T22:37:15;3.10;;;2.20;;
44328;SDS011;30039;51.462;6.892;2022-09-03T22:40:16;3.83;;;2.00;;
44328;SDS011;30039;51.462;6.892;2022-09-03T22:46:06;3.58;;;2.28;;
44328;SDS011;30039;51.462;6.892;2022-09-03T22:57:32;4.90;;;1.77;;
44328;SDS011;30039;51.462;6.892;2022-09-03T23:00:20;2.45;;;1.80;;
44328;SDS011;30039;51.462;6.892;2022-09-03T23:03:08;2.33;;;1.90;;
44328;SDS011;30039;51.462;6.892;2022-09-03T23:06:06;2.72;;;1.83;;
44328;SDS011;30039;51.462;6.892;2022-09-03T23:09:05;3.00;;;1.90;;
44328;SDS011;30039;51.462;6.892;2022-09-03T23:12:00;3.65;;;2.20;;
44328;SDS011;30039;51.462;6.892;2022-09-03T23:14:49;2.35;;;2.10;;
44328;SDS011;30039;51.462;6.892;2022-09-03T23:17:39;2.50;;;2.08;;
44328;SDS011;30039;51.462;6.892;2022-09-03T23:20:28;3.28;;;2.47;;
44328;SDS011;30039;51.462;6.892;2022-09-03T23:26:24;3.70;;;2.70;;
44328;SDS011;30039;51.462;6.892;2022-09-03T23:32:12;3.55;;;2.88;;
44328;SDS011;30039;51.462;6.892;2022-09-03T23:34:57;4.40;;;2.85;;
44328;SDS011;30039;51.462;6.892;2022-09-03T23:43:48;4.30;;;2.95;;
44328;SDS011;30039;51.462;6.892;2022-09-03T23:46:55;3.90;;;2.80;;
44328;SDS011;30039;51.462;6.892;2022-09-03T23:52:55;4.63;;;3.10;;
44328;SDS011;30039;51.462;6.892;2022-09-03T23:56:26;4.72;;;2.60;;
